ADDS METAR Data INFO
IDs: Format: Raw Decoded Include TAF

Data at: 1359 UTC 26 May 2018

KLUD 261355Z AUTO 00000KT 10SM CLR 25/19 A2987 RMK AO2 T02510193
KLUD 261335Z AUTO 00000KT 10SM CLR 25/20 A2986 RMK AO2 T02480196
KLUD 261315Z AUTO 00000KT 7SM CLR 24/20 A2986 RMK AO2 T02410195
KLUD 261255Z AUTO 00000KT 10SM CLR 23/19 A2985 RMK AO2 T02340193
KLUD 261235Z AUTO 00000KT 10SM CLR 22/19 A2985 RMK AO2 T02230190
KLUD 261215Z AUTO 00000KT 10SM CLR 22/19 A2985 RMK AO2 T02220186
KLUD 261155Z AUTO 00000KT 10SM CLR 21/18 A2985 RMK AO2 T02060181 10246 20191
KLUD 261135Z AUTO 00000KT 10SM CLR 20/18 A2984 RMK AO2 T01950175
KLUD 261115Z AUTO 00000KT 10SM CLR 19/17 A2984 RMK AO2 T01940174
KLUD 261055Z AUTO 00000KT 10SM CLR 20/17 A2983 RMK AO2 T01960174
KLUD 261035Z AUTO 00000KT 10SM CLR 20/18 A2983 RMK AO2 T01980175
KLUD 261015Z AUTO 00000KT 10SM CLR 20/18 A2983 RMK AO2 T02000175
KLUD 260955Z AUTO 00000KT 10SM CLR 21/18 A2984 RMK AO2 T02070176
KLUD 260935Z AUTO 00000KT 10SM CLR 21/18 A2984 RMK AO2 T02050177
KLUD 260915Z AUTO 07003KT 10SM CLR 21/18 A2983 RMK AO2 T02090177
KLUD 260855Z AUTO 00000KT 10SM CLR 21/18 A2985 RMK AO2 T02100178
KLUD 260835Z AUTO 00000KT 10SM CLR 21/18 A2985 RMK AO2 T02130180
KLUD 260815Z AUTO 00000KT 10SM CLR 22/18 A2983 RMK AO2 T02220182
KLUD 260755Z AUTO 05004KT 10SM CLR 23/18 A2984 RMK AO2 T02280182
KLUD 260735Z AUTO 13006KT 10SM CLR 24/18 A2980 RMK AO2 T02350182
KLUD 260715Z AUTO 13008KT 10SM CLR 24/18 A2979 RMK AO2 T02390182
KLUD 260655Z AUTO 12005KT 10SM CLR 24/18 A2981 RMK AO2 T02350180
KLUD 260635Z AUTO 13006KT 10SM CLR 25/18 A2982 RMK AO2 T02460177
KLUD 260615Z AUTO 15008KT 10SM CLR 25/18 A2981 RMK AO2 T02450175
KLUD 260555Z AUTO 15004KT 10SM CLR 24/17 A2983 RMK AO2 T02410170 10293 20238 403140227
KLUD 260535Z AUTO 16006KT 7SM CLR 25/17 A2984 RMK AO2 T02460168
KLUD 260515Z AUTO 15004KT 10SM CLR 25/16 A2985 RMK AO2 T02450160
KLUD 260455Z AUTO 15005KT 10SM CLR 25/15 A2984 RMK AO2 T02500152
KLUD 260435Z AUTO 20004KT 10SM CLR 24/15 A2987 RMK AO2 T02440146
KLUD 260415Z AUTO 22005KT 10SM CLR 24/15 A2990 RMK AO2 T02380145
KLUD 260355Z AUTO 23004KT 10SM CLR 26/14 A2988 RMK AO2 T02570137
KLUD 260335Z AUTO 15004KT 10SM CLR 25/14 A2986 RMK AO2 T02470141
KLUD 260315Z AUTO 14004KT 10SM CLR 24/15 A2986 RMK AO2 T02410146
KLUD 260255Z AUTO 00000KT 10SM CLR 25/15 A2986 RMK AO2 T02460148
KLUD 260235Z AUTO 00000KT 10SM CLR 25/15 A2985 RMK AO2 T02490150
KLUD 260215Z AUTO 00000KT 10SM CLR 25/15 A2984 RMK AO2 T02500150
KLUD 260155Z AUTO 12003KT 10SM CLR 25/15 A2985 RMK AO2 T02530150
KLUD 260135Z AUTO 11005KT 10SM CLR 26/15 A2986 RMK AO2 T02590151
KLUD 260115Z AUTO 12005KT 10SM CLR 27/15 A2985 RMK AO2 T02690152
KLUD 260055Z AUTO 12006KT 10SM CLR 28/15 A2985 RMK AO2 T02810145
KLUD 260035Z AUTO 13007KT 10SM CLR 29/15 A2985 RMK AO2 T02860152
KLUD 260015Z AUTO 11007KT 10SM CLR 29/15 A2985 RMK AO2 T02900153
KLUD 252355Z AUTO 11012G17KT 10SM CLR 29/16 A2985 RMK AO2 T02930155 10314 20276
KLUD 252335Z AUTO 11012G18KT 10SM CLR 30/15 A2985 RMK AO2 T02960152
KLUD 252315Z AUTO 12009G15KT 10SM CLR 31/16 A2986 RMK AO2 T03050155
KLUD 252255Z AUTO 13010G17KT 10SM CLR 31/16 A2987 RMK AO2 T03070159
KLUD 252235Z AUTO 12009G19KT 10SM CLR 31/13 A2987 RMK AO2 T03050126
KLUD 252215Z AUTO 12011G20KT 10SM CLR 31/16 A2988 RMK AO2 T03100156
KLUD 252155Z AUTO 11015G20KT 10SM CLR 31/16 A2988 RMK AO2 T03110162
KLUD 252135Z AUTO 10010G20KT 10SM CLR 31/15 A2989 RMK AO2 T03120150
KLUD 252115Z AUTO 10010G18KT 10SM CLR 31/16 A2990 RMK AO2 T03100161
KLUD 252055Z AUTO 10013G20KT 10SM CLR 30/16 A2991 RMK AO2 T03010164
KLUD 252035Z AUTO 09011G17KT 10SM CLR 30/20 A2991 RMK AO2 T03000198
KLUD 252015Z AUTO 09010G14KT 10SM CLR 30/21 A2992 RMK AO2 T03010207
KLUD 251955Z AUTO 09008KT 10SM CLR 30/21 A2993 RMK AO2 T03000211
KLUD 251935Z AUTO 09010G19KT 10SM CLR 30/21 A2994 RMK AO2 T02960210
KLUD 251915Z AUTO 07011G16KT 10SM CLR 29/21 A2994 RMK AO2 T02910206
KLUD 251855Z AUTO 06012G16KT 10SM CLR 28/21 A2995 RMK AO2 T02840206
KLUD 251835Z AUTO 07011G15KT 10SM CLR 29/21 A2995 RMK AO2 T02860208
KLUD 251815Z AUTO 03009KT 10SM CLR 29/21 A2996 RMK AO2 T02870205
KLUD 251755Z AUTO 06012KT 10SM CLR 28/20 A2997 RMK AO2 T02810198 10312 20230
KLUD 251735Z AUTO 04009G14KT 10SM SCT041 27/19 A2998 RMK AO2 T02660191
KLUD 251715Z AUTO 00000KT 10SM CLR 31/21 A2997 RMK AO2 T03080209
KLUD 251655Z AUTO 20005KT 7SM CLR 31/21 A2998 RMK AO2 T03110213
KLUD 251635Z AUTO 00000KT 10SM CLR 30/21 A2998 RMK AO2 T03040212
KLUD 251615Z AUTO 20004KT 10SM CLR 30/22 A2998 RMK AO2 T03000215
KLUD 251555Z AUTO 19006KT 10SM CLR 30/21 A2998 RMK AO2 T02960210
KLUD 251535Z AUTO 19007KT 10SM CLR 29/22 A2998 RMK AO2 T02920215
KLUD 251515Z AUTO 20006KT 10SM CLR 29/21 A2998 RMK AO2 T02850214
KLUD 251455Z AUTO 20008KT 10SM CLR 28/22 A2998 RMK AO2 T02760215
KLUD 251435Z AUTO 19007KT 10SM CLR 27/21 A2998 RMK AO2 T02700213
KLUD 251415Z AUTO 19007KT 10SM CLR 26/21 A2998 RMK AO2 T02630213
KLUD 251355Z AUTO 19008KT 10SM CLR 26/21 A2998 RMK AO2 T02590210
KLUD 251335Z AUTO 19005KT 10SM CLR 25/21 A2998 RMK AO2 T02530210
KLUD 251315Z AUTO 19003KT 10SM CLR 25/21 A2998 RMK AO2 T02460207
KLUD 251255Z AUTO 17005KT 10SM CLR 24/21 A2998 RMK AO2 T02400206
KLUD 251235Z AUTO 16006KT 10SM CLR 24/21 A2997 RMK AO2 T02350205
KLUD 251215Z AUTO 17003KT 10SM CLR 23/20 A2997 RMK AO2 T02300203
KLUD 251155Z AUTO 17004KT 10SM CLR 23/20 A2997 RMK AO2 T02290202 10249 20227
KLUD 251135Z AUTO 17003KT 10SM CLR 23/20 A2996 RMK AO2 T02300202
KLUD 251115Z AUTO 17006KT 10SM CLR 23/20 A2996 RMK AO2 T02300202
KLUD 251055Z AUTO 17005KT 10SM CLR 23/20 A2995 RMK AO2 T02300202
KLUD 251035Z AUTO 17007KT 10SM CLR 23/20 A2995 RMK AO2 T02300202
KLUD 251015Z AUTO 17005KT 7SM CLR 23/20 A2996 RMK AO2 T02320202
KLUD 250955Z AUTO 17006KT 10SM CLR 24/20 A2997 RMK AO2 T02350201
KLUD 250935Z AUTO 17008KT 10SM CLR 24/20 A2997 RMK AO2 T02370200
KLUD 250915Z AUTO 18007KT 10SM SCT095 24/20 A2997 RMK AO2 T02400200
KLUD 250855Z AUTO 17010G17KT 10SM SCT090 25/20 A2997 RMK AO2 T02450200
KLUD 250835Z AUTO 18009KT 10SM SCT090 25/20 A2998 RMK AO2 T02460199
KLUD 250815Z AUTO 16004KT 10SM CLR 24/20 A2998 RMK AO2 T02410196
KLUD 250755Z AUTO 15004KT 10SM CLR 24/20 A2998 RMK AO2 T02410196
KLUD 250735Z AUTO 15003KT 10SM CLR 24/20 A2998 RMK AO2 T02410196
KLUD 250715Z AUTO 15004KT 10SM CLR 24/20 A2999 RMK AO2 T02410196
KLUD 250655Z AUTO 00000KT 10SM CLR 25/20 A3000 RMK AO2 T02460195
KLUD 250635Z AUTO 14007KT 10SM CLR 25/20 A3000 RMK AO2 T02470195
KLUD 250615Z AUTO 13006KT 10SM CLR 25/19 A3001 RMK AO2 T02450193
KLUD 250555Z AUTO 13004KT 10SM CLR 25/19 A3001 RMK AO2 T02500190 10300 20250 403130203
KLUD 250535Z AUTO 14004KT 10SM CLR 25/19 A3001 RMK AO2 T02500187
KLUD 250515Z AUTO 00000KT 10SM CLR 25/19 A3001 RMK AO2 T02510185
KLUD 250455Z AUTO 14003KT 10SM CLR 25/18 A3002 RMK AO2 T02520183
KLUD 250435Z AUTO 14003KT 10SM CLR 25/18 A3002 RMK AO2 T02520182
KLUD 250415Z AUTO 00000KT 10SM CLR 25/18 A3002 RMK AO2 T02520183
KLUD 250355Z AUTO 00000KT 10SM CLR 25/18 A3002 RMK AO2 T02510180
KLUD 250335Z AUTO 00000KT 10SM CLR 25/18 A3002 RMK AO2 T02540178
KLUD 250315Z AUTO 00000KT 10SM CLR 26/18 A3001 RMK AO2 T02550176
KLUD 250255Z AUTO 00000KT 10SM CLR 26/18 A3001 RMK AO2 T02570177
KLUD 250235Z AUTO 00000KT 10SM CLR 26/18 A3000 RMK AO2 T02550179
KLUD 250215Z AUTO 00000KT 10SM CLR 27/18 A3000 RMK AO2 T02670180